Aviation WX

[Source: ADDS]
METAR
KFKL 170756Z AUTO 22008KT 10SM FEW070 OVC110 04/01 A3000 RMK AO2 SLP168 T00390011 =
KFKL 170520Z 1706/1806 23010KT P6SM SKC WS020/27040KT FM171500 27012G22KT P6SM VCSH BKN015 FM172000 30015G28KT P6SM VCSH BKN025 FM180200 31012KT P6SM OVC015
TAF
KFKL 170520Z 1706/1806 23010KT P6SM SKC WS020/27040KT FM171500 27012G22KT P6SM VCSH BKN015 FM172000 30015G28KT P6SM VCSH BKN025 FM180200 31012KT P6SM OVC015 =

Clarion Airport T-Shirts

small

24-Hour Fuel Instructions

We sell 100LL Avgas and Jet A with pre-mixed anti-icing additive, and both fuels are available 24 hours a day through our automated fueling terminal.  We provide full service fueling during our attended hours.  After hours, you can serve yourself, or you can call us, and we will be happy to come in and fuel your plane.  Jet A is available Single Point, or Over the Wing.  We will do hot fueling of turbine helicopters by prior arrangement.

The instructions for operating the fueling terminal are as follows:

100LL

1.  Locate the fire extinguishers on the pump island and the Emergency Fuel Pump Shutoff Switch on the side of the terminal building to left of the entrance.  Ground the aircraft with the grounding clamp to a metallic surface on the aircraft

2.  Indicate that you have done so by pressing the "OK" key on the unit keyboard.

3.  Swipe your credit card through the card reader.

4.  Follow prompts for type of fuel, quantity or dollar amount desired.

5.  Enter N number, cursor is over the "N" to start with, use arrow keys to select other numbers and letters.

6.  After authorization, turn on black electrical switch near Avgas hose reel. Pump fuel.

7.  When finished, turn off pump switch.  Receipt will print out.





JET A w/additive


1.  Locate the fire extinguishers on the pump island and the Emergency Fuel Pump Shutoff Switch on the side of the terminal building to left of the entrance.  Ground the aircraft with the grounding clamp to a metallic surface on the aircraft

2.  Indicate that you have done so by pressing the "OK" key on the unit keyboard.

3.  Swipe your credit card through the card reader.

4.  Follow prompts for type of fuel, quantity or dollar amount desired.

5.  Enter N number, cursor is over the "N" to start with, use arrow keys to select other numbers and letters.

6.  After authorization, Jet Pump will start, turn on black electrical switch on side toward Jet pump hose reel to open fuel valve. Pump fuel.

7.  When finished, turn off pump switch.  Receipt will print out.